createdAt,value
2023-05-05T05:43:46.568Z,15.50
2023-05-05T05:45:46.741Z,15.25
2023-05-05T05:47:46.782Z,15.12
2023-05-05T05:49:46.705Z,15.00
2023-05-05T05:51:47.028Z,15.00
2023-05-05T05:53:46.697Z,14.94
2023-05-05T05:55:46.714Z,14.75
2023-05-05T05:57:46.713Z,14.75
2023-05-05T05:59:46.698Z,15.75
2023-05-05T06:01:46.725Z,15.56
2023-05-05T06:03:46.774Z,15.38
2023-05-05T06:05:46.724Z,15.25
2023-05-05T06:07:46.702Z,15.19
2023-05-05T06:09:46.712Z,15.12
2023-05-05T06:11:46.721Z,15.00
2023-05-05T06:13:46.701Z,14.88
2023-05-05T06:15:46.754Z,14.81
2023-05-05T06:17:46.736Z,14.75
2023-05-05T06:19:46.723Z,14.62
2023-05-05T06:21:46.711Z,14.56
2023-05-05T06:23:46.729Z,14.44
2023-05-05T06:25:46.729Z,14.38
2023-05-05T06:27:46.718Z,14.25
2023-05-05T06:29:46.728Z,14.19
2023-05-05T06:31:46.783Z,14.12
2023-05-05T06:33:46.732Z,14.06
2023-05-05T06:35:46.717Z,14.00
2023-05-05T06:37:46.723Z,13.94
2023-05-05T06:39:46.737Z,13.88
2023-05-05T06:41:46.737Z,13.81
2023-05-05T06:43:46.745Z,13.69
2023-05-05T06:45:46.723Z,13.69
2023-05-05T06:47:46.833Z,13.56
2023-05-05T06:49:46.721Z,13.50
2023-05-05T06:51:46.734Z,13.44
2023-05-05T06:53:46.744Z,13.38
2023-05-05T06:55:46.734Z,13.31
2023-05-05T06:57:46.744Z,13.31
2023-05-05T06:59:46.737Z,13.25
2023-05-05T07:01:46.749Z,13.25
2023-05-05T07:03:46.859Z,13.19
2023-05-05T07:05:46.738Z,13.19
2023-05-05T07:07:46.751Z,13.12
2023-05-05T07:09:46.735Z,13.12
2023-05-05T07:11:46.760Z,13.06
2023-05-05T07:13:46.736Z,13.06
2023-05-05T07:15:46.831Z,13.06
2023-05-05T07:17:46.800Z,13.06
2023-05-05T07:19:46.888Z,13.00
2023-05-05T07:21:46.758Z,13.00
2023-05-05T07:23:46.747Z,13.06
2023-05-05T07:25:46.762Z,13.00
2023-05-05T07:27:46.750Z,13.00
2023-05-05T07:29:46.746Z,13.00
2023-05-05T07:31:46.958Z,12.94
2023-05-05T07:33:46.748Z,13.00
2023-05-05T07:35:46.769Z,12.94
2023-05-05T07:37:46.768Z,13.00
2023-05-05T07:39:46.771Z,12.94
2023-05-05T07:41:46.754Z,13.00
2023-05-05T07:43:46.773Z,13.00
2023-05-05T07:45:46.792Z,13.00
2023-05-05T07:47:46.794Z,13.00
2023-05-05T07:49:46.764Z,13.00
2023-05-05T07:51:46.837Z,16.12
2023-05-05T07:53:46.773Z,16.44
2023-05-05T07:55:46.791Z,16.31
2023-05-05T07:57:46.760Z,16.12
2023-05-05T07:59:46.775Z,16.25
2023-05-05T08:01:46.755Z,16.31
2023-05-05T08:03:46.814Z,16.38
2023-05-05T08:05:46.768Z,16.25
2023-05-05T08:07:46.843Z,16.25
2023-05-05T08:09:46.777Z,16.25
2023-05-05T08:11:46.768Z,16.31
2023-05-05T08:13:46.783Z,16.31
2023-05-05T08:15:46.813Z,16.38
2023-05-05T08:17:46.824Z,16.31
2023-05-05T08:19:46.809Z,16.31
2023-05-05T08:21:46.789Z,16.38
2023-05-05T08:23:46.866Z,16.38
2023-05-05T08:25:46.778Z,16.31
2023-05-05T08:27:46.813Z,16.38
2023-05-05T08:29:46.876Z,16.38
2023-05-05T08:31:46.807Z,16.38
2023-05-05T08:33:46.778Z,16.44
2023-05-05T08:35:46.812Z,16.44
2023-05-05T08:37:46.805Z,16.56
2023-05-05T08:39:46.849Z,16.56
2023-05-05T08:41:46.816Z,16.56
2023-05-05T08:43:46.787Z,16.56
2023-05-05T08:45:46.810Z,16.56
2023-05-05T08:47:46.810Z,16.56
2023-05-05T08:49:46.810Z,16.62
2023-05-05T08:51:46.798Z,16.62
2023-05-05T08:53:46.788Z,16.69
2023-05-05T08:55:46.904Z,16.62
2023-05-05T08:57:46.776Z,16.62
2023-05-05T08:59:46.813Z,16.69
2023-05-05T09:01:46.785Z,16.69
2023-05-05T09:03:46.830Z,16.69
2023-05-05T09:05:46.798Z,16.62
2023-05-05T09:07:46.781Z,16.69
2023-05-05T09:09:46.806Z,16.75
2023-05-05T09:11:46.965Z,16.75
2023-05-05T09:13:46.811Z,16.81
2023-05-05T09:15:46.797Z,16.75
2023-05-05T09:17:46.833Z,16.75
2023-05-05T09:19:46.800Z,16.81
2023-05-05T09:21:46.810Z,16.75
2023-05-05T09:23:46.815Z,16.81
2023-05-05T09:25:46.806Z,16.81
2023-05-05T09:27:46.934Z,16.81
2023-05-05T09:29:46.822Z,16.81
2023-05-05T09:31:46.808Z,16.81
2023-05-05T09:33:46.831Z,16.94
2023-05-05T09:35:46.810Z,16.88
2023-05-05T09:37:46.845Z,16.88
2023-05-05T09:39:46.811Z,16.94
2023-05-05T09:41:46.903Z,17.00
2023-05-05T09:43:46.896Z,16.94
2023-05-05T09:45:46.819Z,17.00
2023-05-05T09:47:46.930Z,16.94
2023-05-05T09:49:46.828Z,17.00
2023-05-05T09:51:46.845Z,16.94
2023-05-05T09:53:46.824Z,17.00
2023-05-05T09:55:46.829Z,17.00
2023-05-05T09:57:46.877Z,17.06
2023-05-05T09:59:46.886Z,17.12
2023-05-05T10:01:46.876Z,17.06
2023-05-05T10:03:46.825Z,17.12
2023-05-05T10:05:46.848Z,17.12
2023-05-05T10:07:46.834Z,17.12
2023-05-05T10:09:46.834Z,17.19
2023-05-05T10:11:47.178Z,17.12
2023-05-05T10:13:46.835Z,17.19
2023-05-05T10:15:46.890Z,17.12
2023-05-05T10:18:02.297Z,17.19
2023-05-05T10:19:46.857Z,17.19
2023-05-05T10:21:46.860Z,17.19
2023-05-05T10:23:46.841Z,17.19
2023-05-05T10:25:46.860Z,17.19
2023-05-05T10:27:46.855Z,17.25
2023-05-05T10:29:46.859Z,17.25
2023-05-05T10:31:47.148Z,17.25
2023-05-05T10:33:46.909Z,17.25
2023-05-05T10:35:46.873Z,17.31
2023-05-05T10:37:47.023Z,17.25
2023-05-05T10:39:46.956Z,17.25
2023-05-05T10:41:46.860Z,17.31
2023-05-05T10:43:46.904Z,17.31
2023-05-05T10:45:46.923Z,17.31
2023-05-05T10:47:46.957Z,17.38
2023-05-05T10:49:46.880Z,17.25
2023-05-05T10:51:46.864Z,17.25
2023-05-05T10:53:46.924Z,17.31
2023-05-05T10:55:46.868Z,17.31
2023-05-05T10:57:46.895Z,17.31
2023-05-05T10:59:46.878Z,17.38
2023-05-05T11:01:46.872Z,17.44
2023-05-05T11:03:47.116Z,17.38
2023-05-05T11:05:46.878Z,17.50
2023-05-05T11:07:46.885Z,17.50
2023-05-05T11:09:46.892Z,17.56
2023-05-05T11:11:46.896Z,17.56
2023-05-05T11:13:46.914Z,17.50
2023-05-05T11:15:46.919Z,17.62
2023-05-05T11:17:46.972Z,17.56
2023-05-05T11:19:46.994Z,17.56
2023-05-05T11:21:46.901Z,17.56
2023-05-05T11:23:46.884Z,17.50
2023-05-05T11:25:46.903Z,17.50
2023-05-05T11:27:46.914Z,17.56
2023-05-05T11:29:46.897Z,17.50
2023-05-05T11:31:46.910Z,17.56
2023-05-05T11:33:46.898Z,17.62
2023-05-05T11:35:47.053Z,17.69
2023-05-05T11:37:46.902Z,17.69
2023-05-05T11:39:46.927Z,17.75
2023-05-05T11:41:46.919Z,17.75
2023-05-05T11:43:46.907Z,17.75
2023-05-05T11:45:46.912Z,17.75
2023-05-05T11:47:46.933Z,17.81
2023-05-05T11:49:46.923Z,17.75
2023-05-05T11:51:47.022Z,17.81
2023-05-05T11:53:46.911Z,17.81
2023-05-05T11:55:46.925Z,17.88
2023-05-05T11:57:46.909Z,17.88
2023-05-05T11:59:49.378Z,17.94
2023-05-05T12:01:46.916Z,17.94
2023-05-05T12:03:47.123Z,17.88
2023-05-05T12:05:46.934Z,17.88
2023-05-05T12:07:47.033Z,17.88
2023-05-05T12:09:46.936Z,17.94
2023-05-05T12:11:46.917Z,17.94
2023-05-05T12:13:46.933Z,18.00
2023-05-05T12:15:46.925Z,17.94
2023-05-05T12:17:46.970Z,18.00
2023-05-05T12:19:46.934Z,18.00
2023-05-05T12:21:46.925Z,18.06
2023-05-05T12:23:46.946Z,18.06
2023-05-05T12:25:46.928Z,18.06
2023-05-05T12:27:46.946Z,18.06
2023-05-05T12:29:46.975Z,18.06
2023-05-05T12:31:46.955Z,18.12
2023-05-05T12:33:46.951Z,18.00
2023-05-05T12:35:46.936Z,18.06
2023-05-05T12:37:46.955Z,18.06
2023-05-05T12:39:47.006Z,18.06
2023-05-05T12:41:46.964Z,18.06
2023-05-05T12:43:46.960Z,18.12
2023-05-05T12:45:47.014Z,18.25
2023-05-05T12:47:46.984Z,18.19
2023-05-05T12:49:46.948Z,18.25
2023-05-05T12:51:46.979Z,18.12
2023-05-05T12:53:46.989Z,18.19
2023-05-05T12:55:47.029Z,18.31
2023-05-05T12:57:47.004Z,18.19
2023-05-05T12:59:46.957Z,18.25
2023-05-05T13:01:47.003Z,18.25
2023-05-05T13:03:46.958Z,18.19
2023-05-05T13:05:46.979Z,18.19
2023-05-05T13:07:46.953Z,18.19
2023-05-05T13:09:46.972Z,18.25
2023-05-05T13:11:46.973Z,18.19
2023-05-05T13:13:46.962Z,18.25
2023-05-05T13:15:46.996Z,18.25
2023-05-05T13:17:46.993Z,18.25
2023-05-05T13:19:46.979Z,18.25
2023-05-05T13:21:46.970Z,18.38
2023-05-05T13:23:46.965Z,18.31
2023-05-05T13:25:46.985Z,18.38
2023-05-05T13:27:47.039Z,18.31
2023-05-05T13:29:47.006Z,18.38
2023-05-05T13:31:47.214Z,18.38
2023-05-05T13:33:46.993Z,18.44
2023-05-05T13:35:46.980Z,18.50
2023-05-05T13:37:46.980Z,18.50
2023-05-05T13:39:47.004Z,18.56
2023-05-05T13:41:46.985Z,18.56
2023-05-05T13:43:47.060Z,18.50
2023-05-05T13:45:46.986Z,18.50
2023-05-05T13:47:47.029Z,18.56
2023-05-05T13:49:46.988Z,18.56
2023-05-05T13:51:47.238Z,18.56
2023-05-05T13:53:47.009Z,18.56
2023-05-05T13:55:46.989Z,18.56
2023-05-05T13:57:47.012Z,18.56
2023-05-05T13:59:47.199Z,18.56
2023-05-05T14:01:47.014Z,18.62
2023-05-05T14:03:47.055Z,18.62
2023-05-05T14:05:46.997Z,18.56
2023-05-05T14:07:47.018Z,18.62
2023-05-05T14:09:47.002Z,18.56
2023-05-05T14:11:47.015Z,18.69
2023-05-05T14:13:47.014Z,18.69
2023-05-05T14:15:47.100Z,18.69
2023-05-05T14:17:47.089Z,18.75
2023-05-05T14:19:47.007Z,18.69
2023-05-05T14:21:47.023Z,18.75
2023-05-05T14:23:47.012Z,18.75
2023-05-05T14:25:47.036Z,18.75
2023-05-05T14:27:47.010Z,18.81
2023-05-05T14:29:47.028Z,18.81
2023-05-05T14:31:47.138Z,18.75
2023-05-05T14:33:47.020Z,18.75
2023-05-05T14:35:47.038Z,18.75
2023-05-05T14:37:47.022Z,18.75
2023-05-05T14:39:47.032Z,18.81
2023-05-05T14:41:47.025Z,18.75
2023-05-05T14:43:47.049Z,18.81
2023-05-05T14:45:47.067Z,18.75
2023-05-05T14:47:47.116Z,18.75
2023-05-05T14:49:47.042Z,18.81
2023-05-05T14:51:47.030Z,18.81
2023-05-05T14:53:47.042Z,18.81
2023-05-05T14:55:47.040Z,18.81
2023-05-05T14:57:47.034Z,18.81
2023-05-05T14:59:47.047Z,18.81
2023-05-05T15:01:47.092Z,18.81
2023-05-05T15:03:47.142Z,18.75
2023-05-05T15:05:47.063Z,18.81
2023-05-05T15:07:47.049Z,18.81
2023-05-05T15:09:47.047Z,18.81
2023-05-05T15:11:47.045Z,18.81
2023-05-05T15:13:47.068Z,18.81
2023-05-05T15:15:47.072Z,18.88
2023-05-05T15:17:47.089Z,18.88
2023-05-05T15:19:47.107Z,18.88
2023-05-05T15:21:47.069Z,18.81
2023-05-05T15:23:47.064Z,18.88
2023-05-05T15:25:47.070Z,18.88
2023-05-05T15:27:47.064Z,18.88
2023-05-05T15:29:47.063Z,18.94
2023-05-05T15:31:47.118Z,18.94
2023-05-05T15:33:47.060Z,18.94
2023-05-05T15:35:47.084Z,18.94
2023-05-05T15:37:47.059Z,18.94
2023-05-05T15:39:47.065Z,19.00
2023-05-05T15:41:47.086Z,18.94
2023-05-05T15:43:47.066Z,18.88
2023-05-05T15:45:47.087Z,18.88
2023-05-05T15:47:47.127Z,18.88
2023-05-05T15:49:47.086Z,18.88
2023-05-05T15:51:47.178Z,18.94
2023-05-05T15:53:47.073Z,18.94
2023-05-05T15:55:47.086Z,18.94
2023-05-05T15:57:47.077Z,18.88
2023-05-05T15:59:47.102Z,18.94
2023-05-05T16:01:47.332Z,18.94
2023-05-05T16:03:47.126Z,18.94
2023-05-05T16:05:47.083Z,18.94
2023-05-05T16:07:47.275Z,18.94
2023-05-05T16:09:47.098Z,18.94
2023-05-05T16:11:47.085Z,18.94
2023-05-05T16:13:47.107Z,18.94
2023-05-05T16:15:47.092Z,18.94
2023-05-05T16:17:47.157Z,18.94
2023-05-05T16:19:47.085Z,18.94
2023-05-05T16:21:47.131Z,18.88
2023-05-05T16:23:47.228Z,18.88
2023-05-05T16:25:47.239Z,18.88
2023-05-05T16:27:47.116Z,18.94
2023-05-05T16:29:47.108Z,18.88
2023-05-05T16:31:47.165Z,18.88
2023-05-05T16:33:47.110Z,18.94
2023-05-05T16:35:47.115Z,18.88
2023-05-05T16:37:47.134Z,18.81
2023-05-05T16:39:47.263Z,18.75
2023-05-05T16:41:47.120Z,18.69
2023-05-05T16:43:47.103Z,18.62
2023-05-05T16:45:47.131Z,18.69
2023-05-05T16:47:47.180Z,18.50
2023-05-05T16:49:47.128Z,18.50
2023-05-05T16:51:47.109Z,18.50
2023-05-05T16:53:48.966Z,18.44
2023-05-05T16:55:47.133Z,18.38
2023-05-05T16:57:47.130Z,18.31
2023-05-05T16:59:47.129Z,18.25
2023-05-05T17:01:47.207Z,18.25
2023-05-05T17:03:47.149Z,18.25
2023-05-05T17:05:49.632Z,18.19
2023-05-05T17:07:47.126Z,18.19
2023-05-05T17:09:47.150Z,18.06
2023-05-05T17:11:47.192Z,18.00
2023-05-05T17:13:47.227Z,18.00
2023-05-05T17:15:47.274Z,17.94
2023-05-05T17:17:47.302Z,17.88
2023-05-05T17:19:47.134Z,17.81
2023-05-05T17:21:47.129Z,17.81
2023-05-05T17:23:47.154Z,17.75
2023-05-05T17:25:47.130Z,17.75
2023-05-05T17:27:47.286Z,17.69
2023-05-05T17:29:47.156Z,17.62
2023-05-05T17:31:47.368Z,17.62
2023-05-05T17:33:47.130Z,17.50
2023-05-05T17:35:47.152Z,17.50
2023-05-05T17:37:47.152Z,17.44
2023-05-05T17:39:47.142Z,17.44
2023-05-05T17:41:47.225Z,17.31
2023-05-05T17:43:47.139Z,17.31
2023-05-05T17:45:47.177Z,17.25
2023-05-05T17:47:47.157Z,17.19
2023-05-05T17:49:47.162Z,17.19
2023-05-05T17:51:47.184Z,17.19
2023-05-05T17:53:47.145Z,17.12
2023-05-05T17:55:47.218Z,17.06
2023-05-05T17:57:47.191Z,17.00
2023-05-05T17:59:47.465Z,16.94
2023-05-05T18:01:47.243Z,16.94
2023-05-05T18:03:47.256Z,16.88
2023-05-05T18:05:47.179Z,16.81
2023-05-05T18:07:47.179Z,16.81
2023-05-05T18:09:47.176Z,16.75
2023-05-05T18:11:47.164Z,16.75
2023-05-05T18:13:47.178Z,16.69
2023-05-05T18:15:47.250Z,16.69
2023-05-05T18:17:47.190Z,16.56
2023-05-05T18:19:49.062Z,16.50
2023-05-05T18:21:47.262Z,16.50
2023-05-05T18:23:47.184Z,16.44
2023-05-05T18:25:47.169Z,16.38
2023-05-05T18:27:47.219Z,16.38
2023-05-05T18:29:47.168Z,16.31
2023-05-05T18:31:47.255Z,16.25
2023-05-05T18:33:47.905Z,16.25
2023-05-05T18:35:47.191Z,16.25
2023-05-05T18:37:47.190Z,16.12
2023-05-05T18:39:47.176Z,16.12
2023-05-05T18:41:47.193Z,16.06
2023-05-05T18:43:47.184Z,15.94
2023-05-05T18:45:47.232Z,15.94
2023-05-05T18:47:47.431Z,15.94
2023-05-05T18:49:47.185Z,15.88
2023-05-05T18:51:47.200Z,15.88
2023-05-05T18:53:47.178Z,15.75
2023-05-05T18:55:47.200Z,15.69
2023-05-05T18:57:47.183Z,15.75
2023-05-05T18:59:47.209Z,15.69
2023-05-05T19:01:47.201Z,15.69
2023-05-05T19:03:47.218Z,15.62
2023-05-05T19:05:47.204Z,15.56
2023-05-05T19:07:47.190Z,15.50
2023-05-05T19:09:47.207Z,15.50
2023-05-05T19:11:47.204Z,15.50
2023-05-05T19:13:47.198Z,15.44
2023-05-05T19:15:47.202Z,15.44
2023-05-05T19:17:47.231Z,15.31
2023-05-05T19:19:47.271Z,15.38
2023-05-05T19:21:47.210Z,15.25
2023-05-05T19:23:47.212Z,15.25
2023-05-05T19:25:47.232Z,15.25
2023-05-05T19:27:47.213Z,15.12
2023-05-05T19:29:47.212Z,15.12
2023-05-05T19:31:47.275Z,15.12
2023-05-05T19:33:47.212Z,15.06
2023-05-05T19:35:55.280Z,15.06
2023-05-05T19:37:47.226Z,15.00
2023-05-05T19:39:47.618Z,14.94
2023-05-05T19:41:47.220Z,15.00
2023-05-05T19:43:47.226Z,15.00
2023-05-05T19:45:47.244Z,14.88
2023-05-05T19:47:47.291Z,14.81
2023-05-05T19:49:47.206Z,14.81
2023-05-05T19:51:47.226Z,14.81
2023-05-05T19:53:47.213Z,14.75
2023-05-05T19:55:47.243Z,14.75
2023-05-05T19:57:47.237Z,14.75
2023-05-05T19:59:47.218Z,14.69
2023-05-05T20:01:47.295Z,14.69
2023-05-05T20:03:47.394Z,14.62
2023-05-05T20:05:47.245Z,14.56
2023-05-05T20:07:47.282Z,14.62
2023-05-05T20:09:47.232Z,14.56
2023-05-05T20:11:47.221Z,14.56
2023-05-05T20:13:47.221Z,14.56
2023-05-05T20:15:47.258Z,14.50
2023-05-05T20:17:47.309Z,14.44
2023-05-05T20:19:47.257Z,14.44
2023-05-05T20:21:47.248Z,14.38
2023-05-05T20:23:47.270Z,14.38
2023-05-05T20:25:47.239Z,14.31
2023-05-05T20:27:47.259Z,14.25
2023-05-05T20:29:47.339Z,14.31
2023-05-05T20:31:47.335Z,14.25
2023-05-05T20:33:47.276Z,14.25
2023-05-05T20:35:47.247Z,14.19
2023-05-05T20:37:47.267Z,14.12
2023-05-05T20:39:47.339Z,14.12
2023-05-05T20:41:47.331Z,14.12
2023-05-05T20:43:47.263Z,14.06
2023-05-05T20:45:47.261Z,14.00
2023-05-05T20:47:47.319Z,14.00
